sensor_id;sensor_type;location;lat;lon;timestamp;temperature;humidity
13682;DHT22;6913;49.892;7.936;2022-08-19T00:00:51;21.50;99.90
13682;DHT22;6913;49.892;7.936;2022-08-19T00:03:17;21.30;99.90
13682;DHT22;6913;49.892;7.936;2022-08-19T00:05:44;21.30;99.90
13682;DHT22;6913;49.892;7.936;2022-08-19T00:08:11;21.30;99.90
13682;DHT22;6913;49.892;7.936;2022-08-19T00:10:38;21.30;99.90
13682;DHT22;6913;49.892;7.936;2022-08-19T00:13:05;21.20;99.90
13682;DHT22;6913;49.892;7.936;2022-08-19T00:15:32;21.20;99.90
13682;DHT22;6913;49.892;7.936;2022-08-19T00:18:00;21.50;99.90
13682;DHT22;6913;49.892;7.936;2022-08-19T00:20:27;21.30;99.90
13682;DHT22;6913;49.892;7.936;2022-08-19T00:22:54;21.30;99.90
13682;DHT22;6913;49.892;7.936;2022-08-19T00:25:21;21.30;99.90
13682;DHT22;6913;49.892;7.936;2022-08-19T00:27:48;21.20;99.90
13682;DHT22;6913;49.892;7.936;2022-08-19T00:30:15;21.10;99.90
13682;DHT22;6913;49.892;7.936;2022-08-19T00:32:42;21.10;99.90
13682;DHT22;6913;49.892;7.936;2022-08-19T00:35:10;20.90;99.90
13682;DHT22;6913;49.892;7.936;2022-08-19T00:37:38;21.00;99.90
13682;DHT22;6913;49.892;7.936;2022-08-19T00:40:07;20.90;99.90
13682;DHT22;6913;49.892;7.936;2022-08-19T00:42:34;21.00;99.90
13682;DHT22;6913;49.892;7.936;2022-08-19T00:45:02;21.10;99.90
13682;DHT22;6913;49.892;7.936;2022-08-19T00:47:29;21.10;99.90
13682;DHT22;6913;49.892;7.936;2022-08-19T00:49:57;21.60;99.90
13682;DHT22;6913;49.892;7.936;2022-08-19T00:52:28;21.30;99.90
13682;DHT22;6913;49.892;7.936;2022-08-19T00:54:57;21.30;99.90
13682;DHT22;6913;49.892;7.936;2022-08-19T00:57:27;21.30;99.90
13682;DHT22;6913;49.892;7.936;2022-08-19T00:59:56;21.40;99.90
13682;DHT22;6913;49.892;7.936;2022-08-19T01:02:25;21.40;99.90
13682;DHT22;6913;49.892;7.936;2022-08-19T01:04:53;21.40;99.90
13682;DHT22;6913;49.892;7.936;2022-08-19T01:07:20;21.30;99.90
13682;DHT22;6913;49.892;7.936;2022-08-19T01:09:49;21.30;99.90
13682;DHT22;6913;49.892;7.936;2022-08-19T01:12:16;21.30;99.90
13682;DHT22;6913;49.892;7.936;2022-08-19T01:14:45;21.30;99.90
13682;DHT22;6913;49.892;7.936;2022-08-19T01:17:15;21.30;99.90
13682;DHT22;6913;49.892;7.936;2022-08-19T01:19:43;21.20;99.90
13682;DHT22;6913;49.892;7.936;2022-08-19T01:22:16;21.30;99.90
13682;DHT22;6913;49.892;7.936;2022-08-19T01:24:45;21.30;99.90
13682;DHT22;6913;49.892;7.936;2022-08-19T01:27:12;21.30;99.90
13682;DHT22;6913;49.892;7.936;2022-08-19T01:29:40;21.30;99.90
13682;DHT22;6913;49.892;7.936;2022-08-19T01:32:12;21.30;99.90
13682;DHT22;6913;49.892;7.936;2022-08-19T01:34:39;21.30;99.90
13682;DHT22;6913;49.892;7.936;2022-08-19T01:37:08;21.20;99.90
13682;DHT22;6913;49.892;7.936;2022-08-19T01:39:37;21.30;99.90
13682;DHT22;6913;49.892;7.936;2022-08-19T01:42:06;21.30;99.90
13682;DHT22;6913;49.892;7.936;2022-08-19T01:44:37;21.30;99.90
13682;DHT22;6913;49.892;7.936;2022-08-19T01:47:04;21.20;99.90
13682;DHT22;6913;49.892;7.936;2022-08-19T01:49:31;21.20;99.90
13682;DHT22;6913;49.892;7.936;2022-08-19T01:51:59;21.20;99.90
13682;DHT22;6913;49.892;7.936;2022-08-19T01:54:27;21.30;99.90
13682;DHT22;6913;49.892;7.936;2022-08-19T01:56:59;21.30;99.90
13682;DHT22;6913;49.892;7.936;2022-08-19T01:59:28;21.30;99.90
13682;DHT22;6913;49.892;7.936;2022-08-19T02:01:54;21.30;99.90
13682;DHT22;6913;49.892;7.936;2022-08-19T02:04:21;21.20;99.90
13682;DHT22;6913;49.892;7.936;2022-08-19T02:06:51;21.20;99.90
13682;DHT22;6913;49.892;7.936;2022-08-19T02:09:18;21.20;99.90
13682;DHT22;6913;49.892;7.936;2022-08-19T02:11:45;21.20;99.90
13682;DHT22;6913;49.892;7.936;2022-08-19T02:14:11;21.20;99.90
13682;DHT22;6913;49.892;7.936;2022-08-19T02:16:40;20.80;99.90
13682;DHT22;6913;49.892;7.936;2022-08-19T02:19:07;20.50;99.90
13682;DHT22;6913;49.892;7.936;2022-08-19T02:21:34;20.60;99.90
13682;DHT22;6913;49.892;7.936;2022-08-19T02:24:01;20.70;99.90
13682;DHT22;6913;49.892;7.936;2022-08-19T02:26:28;20.50;99.90
13682;DHT22;6913;49.892;7.936;2022-08-19T02:28:56;20.50;99.90
13682;DHT22;6913;49.892;7.936;2022-08-19T02:31:24;20.60;99.90
13682;DHT22;6913;49.892;7.936;2022-08-19T02:33:54;20.70;99.90
13682;DHT22;6913;49.892;7.936;2022-08-19T02:36:22;20.80;99.90
13682;DHT22;6913;49.892;7.936;2022-08-19T02:38:49;20.80;99.90
13682;DHT22;6913;49.892;7.936;2022-08-19T02:41:17;20.80;99.90
13682;DHT22;6913;49.892;7.936;2022-08-19T02:43:45;20.70;99.90
13682;DHT22;6913;49.892;7.936;2022-08-19T02:46:14;20.70;99.90
13682;DHT22;6913;49.892;7.936;2022-08-19T02:48:43;20.70;99.90
13682;DHT22;6913;49.892;7.936;2022-08-19T02:51:18;20.70;99.90
13682;DHT22;6913;49.892;7.936;2022-08-19T02:53:45;20.70;99.90
13682;DHT22;6913;49.892;7.936;2022-08-19T02:56:12;20.80;99.90
13682;DHT22;6913;49.892;7.936;2022-08-19T02:58:39;20.60;99.90
13682;DHT22;6913;49.892;7.936;2022-08-19T03:01:06;20.60;99.90
13682;DHT22;6913;49.892;7.936;2022-08-19T03:03:33;20.50;99.90
13682;DHT22;6913;49.892;7.936;2022-08-19T03:06:06;20.50;99.90
13682;DHT22;6913;49.892;7.936;2022-08-19T03:08:35;20.50;99.90
13682;DHT22;6913;49.892;7.936;2022-08-19T03:11:03;20.60;99.90
13682;DHT22;6913;49.892;7.936;2022-08-19T03:13:30;20.50;99.90
13682;DHT22;6913;49.892;7.936;2022-08-19T03:15:58;20.60;99.90
13682;DHT22;6913;49.892;7.936;2022-08-19T03:18:24;20.60;99.90
13682;DHT22;6913;49.892;7.936;2022-08-19T03:20:53;20.60;99.90
13682;DHT22;6913;49.892;7.936;2022-08-19T03:23:20;20.40;99.90
13682;DHT22;6913;49.892;7.936;2022-08-19T03:25:51;20.40;99.90
13682;DHT22;6913;49.892;7.936;2022-08-19T03:28:20;20.50;99.90
13682;DHT22;6913;49.892;7.936;2022-08-19T03:30:58;20.50;99.90
13682;DHT22;6913;49.892;7.936;2022-08-19T03:33:26;20.50;99.90
13682;DHT22;6913;49.892;7.936;2022-08-19T03:36:07;20.40;99.90
13682;DHT22;6913;49.892;7.936;2022-08-19T03:38:36;20.50;99.90
13682;DHT22;6913;49.892;7.936;2022-08-19T03:41:06;20.50;99.90
13682;DHT22;6913;49.892;7.936;2022-08-19T03:43:35;20.10;99.90
13682;DHT22;6913;49.892;7.936;2022-08-19T03:46:04;20.30;99.90
13682;DHT22;6913;49.892;7.936;2022-08-19T03:48:32;19.90;99.90
13682;DHT22;6913;49.892;7.936;2022-08-19T03:51:00;20.00;99.90
13682;DHT22;6913;49.892;7.936;2022-08-19T03:53:28;20.00;99.90
13682;DHT22;6913;49.892;7.936;2022-08-19T03:55:56;20.00;99.90
13682;DHT22;6913;49.892;7.936;2022-08-19T03:58:27;20.10;99.90
13682;DHT22;6913;49.892;7.936;2022-08-19T04:00:55;20.00;99.90
13682;DHT22;6913;49.892;7.936;2022-08-19T04:03:22;20.10;99.90
13682;DHT22;6913;49.892;7.936;2022-08-19T04:05:49;20.40;99.90
13682;DHT22;6913;49.892;7.936;2022-08-19T04:08:16;20.20;99.90
13682;DHT22;6913;49.892;7.936;2022-08-19T04:10:46;20.20;99.90
13682;DHT22;6913;49.892;7.936;2022-08-19T04:13:13;20.20;99.90
13682;DHT22;6913;49.892;7.936;2022-08-19T04:15:41;20.20;99.90
13682;DHT22;6913;49.892;7.936;2022-08-19T04:18:09;20.20;99.90
13682;DHT22;6913;49.892;7.936;2022-08-19T04:20:44;20.20;99.90
13682;DHT22;6913;49.892;7.936;2022-08-19T04:23:12;20.20;99.90
13682;DHT22;6913;49.892;7.936;2022-08-19T04:25:41;20.20;99.90
13682;DHT22;6913;49.892;7.936;2022-08-19T04:28:10;20.20;99.90
13682;DHT22;6913;49.892;7.936;2022-08-19T04:30:41;20.10;99.90
13682;DHT22;6913;49.892;7.936;2022-08-19T04:33:08;20.10;99.90
13682;DHT22;6913;49.892;7.936;2022-08-19T04:35:36;19.90;99.90
13682;DHT22;6913;49.892;7.936;2022-08-19T04:38:05;19.70;99.90
13682;DHT22;6913;49.892;7.936;2022-08-19T04:40:32;19.70;99.90
13682;DHT22;6913;49.892;7.936;2022-08-19T04:43:16;19.70;99.90
13682;DHT22;6913;49.892;7.936;2022-08-19T04:45:45;19.70;99.90
13682;DHT22;6913;49.892;7.936;2022-08-19T04:48:12;19.70;99.90
13682;DHT22;6913;49.892;7.936;2022-08-19T04:50:43;19.70;99.90
13682;DHT22;6913;49.892;7.936;2022-08-19T04:53:10;19.70;99.90
13682;DHT22;6913;49.892;7.936;2022-08-19T04:55:41;19.70;99.90
13682;DHT22;6913;49.892;7.936;2022-08-19T04:58:08;19.60;99.90
13682;DHT22;6913;49.892;7.936;2022-08-19T05:00:37;19.70;99.90
13682;DHT22;6913;49.892;7.936;2022-08-19T05:03:06;19.90;99.90
13682;DHT22;6913;49.892;7.936;2022-08-19T05:05:39;19.60;99.90
13682;DHT22;6913;49.892;7.936;2022-08-19T05:08:06;19.30;99.90
13682;DHT22;6913;49.892;7.936;2022-08-19T05:10:35;19.40;99.90
13682;DHT22;6913;49.892;7.936;2022-08-19T05:13:02;19.40;99.90
13682;DHT22;6913;49.892;7.936;2022-08-19T05:15:29;19.60;99.90
13682;DHT22;6913;49.892;7.936;2022-08-19T05:17:57;19.50;99.90
13682;DHT22;6913;49.892;7.936;2022-08-19T05:20:42;19.50;99.90
13682;DHT22;6913;49.892;7.936;2022-08-19T05:23:27;19.60;99.90
13682;DHT22;6913;49.892;7.936;2022-08-19T05:25:54;19.50;99.90
13682;DHT22;6913;49.892;7.936;2022-08-19T05:28:21;19.60;99.90
13682;DHT22;6913;49.892;7.936;2022-08-19T05:30:48;19.70;99.90
13682;DHT22;6913;49.892;7.936;2022-08-19T05:33:16;19.80;99.90
13682;DHT22;6913;49.892;7.936;2022-08-19T05:35:45;19.90;99.90
13682;DHT22;6913;49.892;7.936;2022-08-19T05:38:13;19.90;99.90
13682;DHT22;6913;49.892;7.936;2022-08-19T05:40:41;20.00;99.90
13682;DHT22;6913;49.892;7.936;2022-08-19T05:43:13;20.10;99.90
13682;DHT22;6913;49.892;7.936;2022-08-19T05:45:50;20.20;99.90
13682;DHT22;6913;49.892;7.936;2022-08-19T05:48:33;20.30;99.90
13682;DHT22;6913;49.892;7.936;2022-08-19T05:51:14;20.40;99.90
13682;DHT22;6913;49.892;7.936;2022-08-19T05:53:48;20.50;99.90
13682;DHT22;6913;49.892;7.936;2022-08-19T05:56:20;19.80;99.90
13682;DHT22;6913;49.892;7.936;2022-08-19T05:58:50;21.00;99.90
13682;DHT22;6913;49.892;7.936;2022-08-19T06:01:19;21.20;99.90
13682;DHT22;6913;49.892;7.936;2022-08-19T06:03:46;21.30;99.90
13682;DHT22;6913;49.892;7.936;2022-08-19T06:06:16;21.70;99.90
13682;DHT22;6913;49.892;7.936;2022-08-19T06:08:43;22.00;99.90
13682;DHT22;6913;49.892;7.936;2022-08-19T06:11:19;22.20;99.90
13682;DHT22;6913;49.892;7.936;2022-08-19T06:13:49;22.30;99.90
13682;DHT22;6913;49.892;7.936;2022-08-19T06:16:18;22.50;99.90
13682;DHT22;6913;49.892;7.936;2022-08-19T06:18:49;22.90;99.90
13682;DHT22;6913;49.892;7.936;2022-08-19T06:21:20;22.80;99.90
13682;DHT22;6913;49.892;7.936;2022-08-19T06:23:47;23.10;99.90
13682;DHT22;6913;49.892;7.936;2022-08-19T06:26:18;23.50;99.90
13682;DHT22;6913;49.892;7.936;2022-08-19T06:28:45;23.80;99.90
13682;DHT22;6913;49.892;7.936;2022-08-19T06:31:13;24.30;99.90
13682;DHT22;6913;49.892;7.936;2022-08-19T06:33:42;24.70;99.90
13682;DHT22;6913;49.892;7.936;2022-08-19T06:36:18;25.00;99.90
13682;DHT22;6913;49.892;7.936;2022-08-19T06:38:45;25.20;99.90
13682;DHT22;6913;49.892;7.936;2022-08-19T06:41:12;25.30;99.90
13682;DHT22;6913;49.892;7.936;2022-08-19T06:43:39;25.40;99.90
13682;DHT22;6913;49.892;7.936;2022-08-19T06:46:10;25.50;99.90
13682;DHT22;6913;49.892;7.936;2022-08-19T06:48:38;25.90;99.90
13682;DHT22;6913;49.892;7.936;2022-08-19T06:51:05;26.10;99.90
13682;DHT22;6913;49.892;7.936;2022-08-19T06:53:34;26.00;99.90
13682;DHT22;6913;49.892;7.936;2022-08-19T06:56:01;26.10;99.90
13682;DHT22;6913;49.892;7.936;2022-08-19T06:58:29;26.60;99.90
13682;DHT22;6913;49.892;7.936;2022-08-19T07:00:59;27.30;99.90
13682;DHT22;6913;49.892;7.936;2022-08-19T07:03:29;27.80;99.90
13682;DHT22;6913;49.892;7.936;2022-08-19T07:05:58;28.00;99.90
13682;DHT22;6913;49.892;7.936;2022-08-19T07:08:28;27.80;99.90
13682;DHT22;6913;49.892;7.936;2022-08-19T07:10:57;27.40;99.90
13682;DHT22;6913;49.892;7.936;2022-08-19T07:13:24;27.00;99.90
13682;DHT22;6913;49.892;7.936;2022-08-19T07:15:51;26.30;99.90
13682;DHT22;6913;49.892;7.936;2022-08-19T07:18:19;26.10;99.90
13682;DHT22;6913;49.892;7.936;2022-08-19T07:20:46;26.20;99.90
13682;DHT22;6913;49.892;7.936;2022-08-19T07:23:14;26.00;99.90
13682;DHT22;6913;49.892;7.936;2022-08-19T07:25:41;26.10;99.90
13682;DHT22;6913;49.892;7.936;2022-08-19T07:28:10;26.20;99.90
13682;DHT22;6913;49.892;7.936;2022-08-19T07:30:37;26.30;99.90
13682;DHT22;6913;49.892;7.936;2022-08-19T07:33:06;26.60;99.90
13682;DHT22;6913;49.892;7.936;2022-08-19T07:35:33;27.00;99.90
13682;DHT22;6913;49.892;7.936;2022-08-19T07:38:00;27.20;99.90
13682;DHT22;6913;49.892;7.936;2022-08-19T07:40:29;27.20;99.90
13682;DHT22;6913;49.892;7.936;2022-08-19T07:42:57;27.00;99.90
13682;DHT22;6913;49.892;7.936;2022-08-19T07:45:25;26.90;99.90
13682;DHT22;6913;49.892;7.936;2022-08-19T07:47:52;26.90;99.90
13682;DHT22;6913;49.892;7.936;2022-08-19T07:50:20;27.00;99.90
13682;DHT22;6913;49.892;7.936;2022-08-19T07:52:48;26.90;99.90
13682;DHT22;6913;49.892;7.936;2022-08-19T07:55:17;27.20;99.90
13682;DHT22;6913;49.892;7.936;2022-08-19T07:57:44;27.30;99.90
13682;DHT22;6913;49.892;7.936;2022-08-19T08:00:12;27.20;99.90
13682;DHT22;6913;49.892;7.936;2022-08-19T08:02:40;26.90;99.90
13682;DHT22;6913;49.892;7.936;2022-08-19T08:05:08;27.20;99.90
13682;DHT22;6913;49.892;7.936;2022-08-19T08:07:53;27.10;99.90
13682;DHT22;6913;49.892;7.936;2022-08-19T08:10:37;27.60;99.90
13682;DHT22;6913;49.892;7.936;2022-08-19T08:13:04;27.80;99.90
13682;DHT22;6913;49.892;7.936;2022-08-19T08:15:31;28.10;99.90
13682;DHT22;6913;49.892;7.936;2022-08-19T08:18:00;28.00;99.90
13682;DHT22;6913;49.892;7.936;2022-08-19T08:20:27;28.10;99.90
13682;DHT22;6913;49.892;7.936;2022-08-19T08:22:54;28.40;99.90
13682;DHT22;6913;49.892;7.936;2022-08-19T08:25:39;28.20;99.90
13682;DHT22;6913;49.892;7.936;2022-08-19T08:28:06;28.40;99.90
13682;DHT22;6913;49.892;7.936;2022-08-19T08:30:34;28.60;99.90
13682;DHT22;6913;49.892;7.936;2022-08-19T08:33:04;28.70;99.90
13682;DHT22;6913;49.892;7.936;2022-08-19T08:35:31;28.80;99.90
13682;DHT22;6913;49.892;7.936;2022-08-19T08:37:59;29.10;99.90
13682;DHT22;6913;49.892;7.936;2022-08-19T08:40:29;29.30;99.90
13682;DHT22;6913;49.892;7.936;2022-08-19T08:42:59;28.90;99.90
13682;DHT22;6913;49.892;7.936;2022-08-19T08:45:30;28.90;99.90
13682;DHT22;6913;49.892;7.936;2022-08-19T08:48:15;28.50;99.90
13682;DHT22;6913;49.892;7.936;2022-08-19T08:50:46;28.30;99.90
13682;DHT22;6913;49.892;7.936;2022-08-19T08:53:17;28.40;99.90
13682;DHT22;6913;49.892;7.936;2022-08-19T08:55:46;28.50;99.90
13682;DHT22;6913;49.892;7.936;2022-08-19T08:58:16;28.60;99.90
13682;DHT22;6913;49.892;7.936;2022-08-19T09:00:47;28.80;99.90
13682;DHT22;6913;49.892;7.936;2022-08-19T09:03:19;28.90;99.90
13682;DHT22;6913;49.892;7.936;2022-08-19T09:05:54;28.70;99.90
13682;DHT22;6913;49.892;7.936;2022-08-19T09:08:33;28.50;99.90
13682;DHT22;6913;49.892;7.936;2022-08-19T09:11:08;28.30;99.90
13682;DHT22;6913;49.892;7.936;2022-08-19T09:13:42;28.10;99.90
13682;DHT22;6913;49.892;7.936;2022-08-19T09:16:16;28.10;99.90
13682;DHT22;6913;49.892;7.936;2022-08-19T09:18:50;28.30;99.90
13682;DHT22;6913;49.892;7.936;2022-08-19T09:21:18;28.60;99.90
13682;DHT22;6913;49.892;7.936;2022-08-19T09:23:46;28.90;99.90
13682;DHT22;6913;49.892;7.936;2022-08-19T09:26:14;29.00;99.90
13682;DHT22;6913;49.892;7.936;2022-08-19T09:28:43;29.00;99.90
13682;DHT22;6913;49.892;7.936;2022-08-19T09:31:10;29.00;99.90
13682;DHT22;6913;49.892;7.936;2022-08-19T09:33:37;29.00;99.90
13682;DHT22;6913;49.892;7.936;2022-08-19T09:36:08;29.20;99.90
13682;DHT22;6913;49.892;7.936;2022-08-19T09:38:36;29.60;99.90
13682;DHT22;6913;49.892;7.936;2022-08-19T09:41:05;30.00;99.90
13682;DHT22;6913;49.892;7.936;2022-08-19T09:43:32;30.20;99.90
13682;DHT22;6913;49.892;7.936;2022-08-19T09:46:02;30.40;99.90
13682;DHT22;6913;49.892;7.936;2022-08-19T09:48:31;30.70;99.90
13682;DHT22;6913;49.892;7.936;2022-08-19T09:51:03;30.80;99.90
13682;DHT22;6913;49.892;7.936;2022-08-19T09:53:31;31.10;99.60
13682;DHT22;6913;49.892;7.936;2022-08-19T09:55:58;31.20;99.50
13682;DHT22;6913;49.892;7.936;2022-08-19T09:58:25;31.00;99.80
13682;DHT22;6913;49.892;7.936;2022-08-19T10:00:53;31.40;99.90
13682;DHT22;6913;49.892;7.936;2022-08-19T10:03:20;31.60;99.30
13682;DHT22;6913;49.892;7.936;2022-08-19T10:05:47;31.70;99.10
13682;DHT22;6913;49.892;7.936;2022-08-19T10:08:18;31.90;98.80
13682;DHT22;6913;49.892;7.936;2022-08-19T10:10:47;32.30;97.70
13682;DHT22;6913;49.892;7.936;2022-08-19T10:13:16;32.40;97.30
13682;DHT22;6913;49.892;7.936;2022-08-19T10:15:44;32.50;97.60
13682;DHT22;6913;49.892;7.936;2022-08-19T10:18:11;32.90;96.30
13682;DHT22;6913;49.892;7.936;2022-08-19T10:20:38;33.00;96.20
13682;DHT22;6913;49.892;7.936;2022-08-19T10:23:07;32.80;95.90
13682;DHT22;6913;49.892;7.936;2022-08-19T10:25:33;33.10;95.10
13682;DHT22;6913;49.892;7.936;2022-08-19T10:28:02;33.10;94.60
13682;DHT22;6913;49.892;7.936;2022-08-19T10:30:29;33.30;94.70
13682;DHT22;6913;49.892;7.936;2022-08-19T10:32:56;33.20;94.30
13682;DHT22;6913;49.892;7.936;2022-08-19T10:35:23;33.00;93.80
13682;DHT22;6913;49.892;7.936;2022-08-19T10:37:52;33.00;92.90
13682;DHT22;6913;49.892;7.936;2022-08-19T10:40:19;33.00;92.10
13682;DHT22;6913;49.892;7.936;2022-08-19T10:42:45;32.50;92.20
13682;DHT22;6913;49.892;7.936;2022-08-19T10:45:14;32.50;92.60
13682;DHT22;6913;49.892;7.936;2022-08-19T10:47:40;32.60;92.20
13682;DHT22;6913;49.892;7.936;2022-08-19T10:50:08;32.30;92.30
13682;DHT22;6913;49.892;7.936;2022-08-19T10:52:52;32.40;92.20
13682;DHT22;6913;49.892;7.936;2022-08-19T10:55:21;32.70;91.50
13682;DHT22;6913;49.892;7.936;2022-08-19T10:58:10;32.80;91.20
13682;DHT22;6913;49.892;7.936;2022-08-19T11:00:39;33.00;91.80
13682;DHT22;6913;49.892;7.936;2022-08-19T11:03:07;33.00;91.30
13682;DHT22;6913;49.892;7.936;2022-08-19T11:05:34;32.80;91.40
13682;DHT22;6913;49.892;7.936;2022-08-19T11:08:03;33.10;91.20
13682;DHT22;6913;49.892;7.936;2022-08-19T11:10:31;33.30;90.50
13682;DHT22;6913;49.892;7.936;2022-08-19T11:12:57;33.10;90.50
13682;DHT22;6913;49.892;7.936;2022-08-19T11:15:26;33.10;91.00
13682;DHT22;6913;49.892;7.936;2022-08-19T11:17:55;33.00;91.10
13682;DHT22;6913;49.892;7.936;2022-08-19T11:20:22;32.60;91.50
13682;DHT22;6913;49.892;7.936;2022-08-19T11:22:52;32.80;91.90
13682;DHT22;6913;49.892;7.936;2022-08-19T11:25:20;32.90;90.40
13682;DHT22;6913;49.892;7.936;2022-08-19T11:27:47;33.10;88.50
13682;DHT22;6913;49.892;7.936;2022-08-19T11:30:17;33.50;90.00
13682;DHT22;6913;49.892;7.936;2022-08-19T11:32:44;33.70;86.80
13682;DHT22;6913;49.892;7.936;2022-08-19T11:35:13;33.40;85.10
13682;DHT22;6913;49.892;7.936;2022-08-19T11:37:40;33.30;86.10
13682;DHT22;6913;49.892;7.936;2022-08-19T11:40:08;33.30;86.40
13682;DHT22;6913;49.892;7.936;2022-08-19T11:42:35;33.10;84.40
13682;DHT22;6913;49.892;7.936;2022-08-19T11:45:19;33.50;85.90
13682;DHT22;6913;49.892;7.936;2022-08-19T11:47:46;33.50;84.00
13682;DHT22;6913;49.892;7.936;2022-08-19T11:50:15;33.30;85.20
13682;DHT22;6913;49.892;7.936;2022-08-19T11:52:43;33.30;85.90
13682;DHT22;6913;49.892;7.936;2022-08-19T11:55:10;33.30;83.90
13682;DHT22;6913;49.892;7.936;2022-08-19T11:57:37;33.40;85.00
13682;DHT22;6913;49.892;7.936;2022-08-19T12:00:07;33.60;82.40
13682;DHT22;6913;49.892;7.936;2022-08-19T12:02:35;33.20;82.20
13682;DHT22;6913;49.892;7.936;2022-08-19T12:05:03;33.10;84.20
13682;DHT22;6913;49.892;7.936;2022-08-19T12:07:33;33.00;83.70
13682;DHT22;6913;49.892;7.936;2022-08-19T12:10:00;33.40;85.30
13682;DHT22;6913;49.892;7.936;2022-08-19T12:12:27;33.70;84.00
13682;DHT22;6913;49.892;7.936;2022-08-19T12:14:54;34.00;82.90
13682;DHT22;6913;49.892;7.936;2022-08-19T12:17:24;34.00;82.40
13682;DHT22;6913;49.892;7.936;2022-08-19T12:19:51;33.90;79.90
13682;DHT22;6913;49.892;7.936;2022-08-19T12:22:18;33.60;79.80
13682;DHT22;6913;49.892;7.936;2022-08-19T12:24:47;33.50;80.30
13682;DHT22;6913;49.892;7.936;2022-08-19T12:27:16;33.10;81.60
13682;DHT22;6913;49.892;7.936;2022-08-19T12:29:43;33.20;82.90
13682;DHT22;6913;49.892;7.936;2022-08-19T12:32:10;33.40;82.80
13682;DHT22;6913;49.892;7.936;2022-08-19T12:34:37;33.70;82.40
13682;DHT22;6913;49.892;7.936;2022-08-19T12:37:05;33.80;81.20
13682;DHT22;6913;49.892;7.936;2022-08-19T12:39:35;33.40;82.20
13682;DHT22;6913;49.892;7.936;2022-08-19T12:42:04;33.40;82.40
13682;DHT22;6913;49.892;7.936;2022-08-19T12:44:32;33.60;82.60
13682;DHT22;6913;49.892;7.936;2022-08-19T12:47:00;33.60;81.40
13682;DHT22;6913;49.892;7.936;2022-08-19T12:49:30;33.70;80.90
13682;DHT22;6913;49.892;7.936;2022-08-19T12:51:59;32.60;81.90
13682;DHT22;6913;49.892;7.936;2022-08-19T12:54:25;32.80;81.80
13682;DHT22;6913;49.892;7.936;2022-08-19T12:56:52;33.40;81.40
13682;DHT22;6913;49.892;7.936;2022-08-19T12:59:21;33.70;81.00
13682;DHT22;6913;49.892;7.936;2022-08-19T13:01:47;34.10;80.00
13682;DHT22;6913;49.892;7.936;2022-08-19T13:04:15;34.20;79.40
13682;DHT22;6913;49.892;7.936;2022-08-19T13:06:42;34.40;78.60
13682;DHT22;6913;49.892;7.936;2022-08-19T13:09:09;34.00;78.10
13682;DHT22;6913;49.892;7.936;2022-08-19T13:11:37;33.70;78.50
13682;DHT22;6913;49.892;7.936;2022-08-19T13:14:04;33.50;77.00
13682;DHT22;6913;49.892;7.936;2022-08-19T13:16:32;33.60;78.70
13682;DHT22;6913;49.892;7.936;2022-08-19T13:18:59;33.40;78.90
13682;DHT22;6913;49.892;7.936;2022-08-19T13:21:28;32.80;79.70
13682;DHT22;6913;49.892;7.936;2022-08-19T13:23:55;32.20;79.80
13682;DHT22;6913;49.892;7.936;2022-08-19T13:26:23;32.10;80.30
13682;DHT22;6913;49.892;7.936;2022-08-19T13:28:50;32.00;79.50
13682;DHT22;6913;49.892;7.936;2022-08-19T13:31:38;32.20;80.50
13682;DHT22;6913;49.892;7.936;2022-08-19T13:34:29;32.00;81.20
13682;DHT22;6913;49.892;7.936;2022-08-19T13:36:56;31.90;82.10
13682;DHT22;6913;49.892;7.936;2022-08-19T13:39:23;31.70;83.00
13682;DHT22;6913;49.892;7.936;2022-08-19T13:41:50;31.80;83.80
13682;DHT22;6913;49.892;7.936;2022-08-19T13:44:18;32.00;83.30
13682;DHT22;6913;49.892;7.936;2022-08-19T13:46:47;32.40;83.00
13682;DHT22;6913;49.892;7.936;2022-08-19T13:49:16;32.60;82.70
13682;DHT22;6913;49.892;7.936;2022-08-19T13:51:43;32.50;82.80
13682;DHT22;6913;49.892;7.936;2022-08-19T13:54:11;32.10;83.20
13682;DHT22;6913;49.892;7.936;2022-08-19T13:56:40;31.60;84.50
13682;DHT22;6913;49.892;7.936;2022-08-19T13:59:08;31.40;85.00
13682;DHT22;6913;49.892;7.936;2022-08-19T14:01:35;31.20;85.10
13682;DHT22;6913;49.892;7.936;2022-08-19T14:04:05;31.10;85.70
13682;DHT22;6913;49.892;7.936;2022-08-19T14:06:32;31.00;87.00
13682;DHT22;6913;49.892;7.936;2022-08-19T14:08:59;31.60;86.30
13682;DHT22;6913;49.892;7.936;2022-08-19T14:11:27;31.90;85.20
13682;DHT22;6913;49.892;7.936;2022-08-19T14:13:54;32.10;85.20
13682;DHT22;6913;49.892;7.936;2022-08-19T14:16:21;32.20;85.10
13682;DHT22;6913;49.892;7.936;2022-08-19T14:18:48;32.20;84.30
13682;DHT22;6913;49.892;7.936;2022-08-19T14:21:20;32.30;84.50
13682;DHT22;6913;49.892;7.936;2022-08-19T14:23:49;32.30;83.90
13682;DHT22;6913;49.892;7.936;2022-08-19T14:26:18;32.20;84.00
13682;DHT22;6913;49.892;7.936;2022-08-19T14:28:45;31.80;84.60
13682;DHT22;6913;49.892;7.936;2022-08-19T14:31:14;31.50;85.60
13682;DHT22;6913;49.892;7.936;2022-08-19T14:33:43;31.50;85.90
13682;DHT22;6913;49.892;7.936;2022-08-19T14:36:10;31.20;86.80
13682;DHT22;6913;49.892;7.936;2022-08-19T14:38:39;31.00;86.70
13682;DHT22;6913;49.892;7.936;2022-08-19T14:41:11;30.90;86.80
13682;DHT22;6913;49.892;7.936;2022-08-19T14:43:39;31.00;86.60
13682;DHT22;6913;49.892;7.936;2022-08-19T14:46:07;30.90;86.60
13682;DHT22;6913;49.892;7.936;2022-08-19T14:48:35;30.50;86.80
13682;DHT22;6913;49.892;7.936;2022-08-19T14:51:04;30.90;87.30
13682;DHT22;6913;49.892;7.936;2022-08-19T14:53:31;31.10;86.60
13682;DHT22;6913;49.892;7.936;2022-08-19T14:56:01;31.10;87.00
13682;DHT22;6913;49.892;7.936;2022-08-19T14:58:28;31.20;86.10
13682;DHT22;6913;49.892;7.936;2022-08-19T15:00:55;31.30;85.40
13682;DHT22;6913;49.892;7.936;2022-08-19T15:03:22;31.60;85.60
13682;DHT22;6913;49.892;7.936;2022-08-19T15:05:49;31.80;85.50
13682;DHT22;6913;49.892;7.936;2022-08-19T15:08:15;31.80;86.60
13682;DHT22;6913;49.892;7.936;2022-08-19T15:10:42;32.00;85.30
13682;DHT22;6913;49.892;7.936;2022-08-19T15:13:11;32.00;84.80
13682;DHT22;6913;49.892;7.936;2022-08-19T15:15:37;32.10;84.80
13682;DHT22;6913;49.892;7.936;2022-08-19T15:18:05;32.20;84.40
13682;DHT22;6913;49.892;7.936;2022-08-19T15:20:32;31.90;84.70
13682;DHT22;6913;49.892;7.936;2022-08-19T15:22:58;31.70;84.80
13682;DHT22;6913;49.892;7.936;2022-08-19T15:25:26;31.60;85.60
13682;DHT22;6913;49.892;7.936;2022-08-19T15:27:53;31.50;85.70
13682;DHT22;6913;49.892;7.936;2022-08-19T15:30:23;31.60;84.90
13682;DHT22;6913;49.892;7.936;2022-08-19T15:32:51;31.50;85.40
13682;DHT22;6913;49.892;7.936;2022-08-19T15:35:20;31.40;85.00
13682;DHT22;6913;49.892;7.936;2022-08-19T15:37:48;31.10;85.40
13682;DHT22;6913;49.892;7.936;2022-08-19T15:40:16;30.80;86.60
13682;DHT22;6913;49.892;7.936;2022-08-19T15:42:43;30.70;87.20
13682;DHT22;6913;49.892;7.936;2022-08-19T15:45:13;30.70;87.10
13682;DHT22;6913;49.892;7.936;2022-08-19T15:47:41;30.90;87.50
13682;DHT22;6913;49.892;7.936;2022-08-19T15:50:10;30.80;86.50
13682;DHT22;6913;49.892;7.936;2022-08-19T15:52:44;30.70;87.10
13682;DHT22;6913;49.892;7.936;2022-08-19T15:55:11;30.60;87.80